sensor_id;sensor_type;location;lat;lon;timestamp;temperature;humidity
48206;DHT22;33995;48.202;16.260;2023-06-14T00:02:18;11.60;99.90
48206;DHT22;33995;48.202;16.260;2023-06-14T00:04:47;11.70;99.90
48206;DHT22;33995;48.202;16.260;2023-06-14T00:07:18;11.60;99.90
48206;DHT22;33995;48.202;16.260;2023-06-14T00:09:49;11.60;99.90
48206;DHT22;33995;48.202;16.260;2023-06-14T00:12:19;11.60;99.90
48206;DHT22;33995;48.202;16.260;2023-06-14T00:14:50;11.50;99.90
48206;DHT22;33995;48.202;16.260;2023-06-14T00:17:21;11.40;99.90
48206;DHT22;33995;48.202;16.260;2023-06-14T00:19:52;11.50;99.90
48206;DHT22;33995;48.202;16.260;2023-06-14T00:22:23;11.50;99.90
48206;DHT22;33995;48.202;16.260;2023-06-14T00:24:53;11.40;99.90
48206;DHT22;33995;48.202;16.260;2023-06-14T00:27:24;11.50;99.90
48206;DHT22;33995;48.202;16.260;2023-06-14T00:29:54;11.60;99.90
48206;DHT22;33995;48.202;16.260;2023-06-14T00:32:28;11.40;99.90
48206;DHT22;33995;48.202;16.260;2023-06-14T00:34:59;11.40;99.90
48206;DHT22;33995;48.202;16.260;2023-06-14T00:37:30;11.40;99.90
48206;DHT22;33995;48.202;16.260;2023-06-14T00:40:02;11.30;99.90
48206;DHT22;33995;48.202;16.260;2023-06-14T00:42:36;11.40;99.90
48206;DHT22;33995;48.202;16.260;2023-06-14T00:45:08;11.40;99.90
48206;DHT22;33995;48.202;16.260;2023-06-14T00:47:38;11.30;99.90
48206;DHT22;33995;48.202;16.260;2023-06-14T00:50:09;11.30;99.90
48206;DHT22;33995;48.202;16.260;2023-06-14T00:52:38;11.20;99.90
48206;DHT22;33995;48.202;16.260;2023-06-14T00:55:06;11.20;99.90
48206;DHT22;33995;48.202;16.260;2023-06-14T00:57:33;11.30;99.90
48206;DHT22;33995;48.202;16.260;2023-06-14T01:00:10;11.30;99.90
48206;DHT22;33995;48.202;16.260;2023-06-14T01:02:40;11.20;99.90
48206;DHT22;33995;48.202;16.260;2023-06-14T01:05:10;11.20;99.90
48206;DHT22;33995;48.202;16.260;2023-06-14T01:11:07;11.10;99.90
48206;DHT22;33995;48.202;16.260;2023-06-14T01:13:43;11.20;99.90
48206;DHT22;33995;48.202;16.260;2023-06-14T01:16:17;11.00;99.90
48206;DHT22;33995;48.202;16.260;2023-06-14T01:18:47;11.00;99.90
48206;DHT22;33995;48.202;16.260;2023-06-14T01:21:25;11.20;99.90
48206;DHT22;33995;48.202;16.260;2023-06-14T01:23:55;11.10;99.90
48206;DHT22;33995;48.202;16.260;2023-06-14T01:26:25;11.10;99.90
48206;DHT22;33995;48.202;16.260;2023-06-14T01:29:02;11.10;99.90
48206;DHT22;33995;48.202;16.260;2023-06-14T01:31:33;11.00;99.90
48206;DHT22;33995;48.202;16.260;2023-06-14T01:34:11;11.10;99.90
48206;DHT22;33995;48.202;16.260;2023-06-14T01:36:41;11.20;99.90
48206;DHT22;33995;48.202;16.260;2023-06-14T01:39:15;11.20;99.90
48206;DHT22;33995;48.202;16.260;2023-06-14T01:41:49;11.30;99.90
48206;DHT22;33995;48.202;16.260;2023-06-14T01:44:22;11.20;99.90
48206;DHT22;33995;48.202;16.260;2023-06-14T01:46:53;11.00;99.90
48206;DHT22;33995;48.202;16.260;2023-06-14T01:49:24;11.00;99.90
48206;DHT22;33995;48.202;16.260;2023-06-14T01:51:55;11.00;99.90
48206;DHT22;33995;48.202;16.260;2023-06-14T01:54:24;11.00;99.90
48206;DHT22;33995;48.202;16.260;2023-06-14T01:56:59;11.10;99.90
48206;DHT22;33995;48.202;16.260;2023-06-14T01:59:41;11.00;99.90
48206;DHT22;33995;48.202;16.260;2023-06-14T02:02:14;11.10;99.90
48206;DHT22;33995;48.202;16.260;2023-06-14T02:04:48;11.10;99.90
48206;DHT22;33995;48.202;16.260;2023-06-14T02:07:23;11.00;99.90
48206;DHT22;33995;48.202;16.260;2023-06-14T02:09:55;11.00;99.90
48206;DHT22;33995;48.202;16.260;2023-06-14T02:12:27;11.00;99.90
48206;DHT22;33995;48.202;16.260;2023-06-14T02:14:58;11.00;99.90
48206;DHT22;33995;48.202;16.260;2023-06-14T02:17:31;11.10;99.90
48206;DHT22;33995;48.202;16.260;2023-06-14T02:20:06;11.20;99.90
48206;DHT22;33995;48.202;16.260;2023-06-14T02:22:37;11.30;99.90
48206;DHT22;33995;48.202;16.260;2023-06-14T02:25:08;11.20;99.90
48206;DHT22;33995;48.202;16.260;2023-06-14T02:27:42;11.30;99.90
48206;DHT22;33995;48.202;16.260;2023-06-14T02:30:14;11.30;99.90
48206;DHT22;33995;48.202;16.260;2023-06-14T02:32:50;11.30;99.90
48206;DHT22;33995;48.202;16.260;2023-06-14T02:35:22;11.30;99.90
48206;DHT22;33995;48.202;16.260;2023-06-14T02:37:57;11.40;99.90
48206;DHT22;33995;48.202;16.260;2023-06-14T02:40:28;11.30;99.90
48206;DHT22;33995;48.202;16.260;2023-06-14T02:42:58;11.20;99.90
48206;DHT22;33995;48.202;16.260;2023-06-14T02:45:29;11.20;99.90
48206;DHT22;33995;48.202;16.260;2023-06-14T02:48:04;11.30;99.90
48206;DHT22;33995;48.202;16.260;2023-06-14T02:50:37;11.20;99.90
48206;DHT22;33995;48.202;16.260;2023-06-14T02:53:08;11.40;99.90
48206;DHT22;33995;48.202;16.260;2023-06-14T02:55:41;11.30;99.90
48206;DHT22;33995;48.202;16.260;2023-06-14T02:58:24;11.30;99.90
48206;DHT22;33995;48.202;16.260;2023-06-14T03:01:00;11.30;99.90
48206;DHT22;33995;48.202;16.260;2023-06-14T03:03:39;11.20;99.90
48206;DHT22;33995;48.202;16.260;2023-06-14T03:06:13;11.30;99.90
48206;DHT22;33995;48.202;16.260;2023-06-14T03:08:47;11.30;99.90
48206;DHT22;33995;48.202;16.260;2023-06-14T03:11:20;11.20;99.90
48206;DHT22;33995;48.202;16.260;2023-06-14T03:13:51;11.20;99.90
48206;DHT22;33995;48.202;16.260;2023-06-14T03:16:25;11.30;99.90
48206;DHT22;33995;48.202;16.260;2023-06-14T03:19:02;11.20;99.90
48206;DHT22;33995;48.202;16.260;2023-06-14T03:21:36;11.30;99.90
48206;DHT22;33995;48.202;16.260;2023-06-14T03:24:08;11.10;99.90
48206;DHT22;33995;48.202;16.260;2023-06-14T03:26:39;11.10;99.90
48206;DHT22;33995;48.202;16.260;2023-06-14T03:29:11;11.20;99.90
48206;DHT22;33995;48.202;16.260;2023-06-14T03:32:00;11.20;99.90
48206;DHT22;33995;48.202;16.260;2023-06-14T03:34:37;11.20;99.90
48206;DHT22;33995;48.202;16.260;2023-06-14T03:37:24;11.20;99.90
48206;DHT22;33995;48.202;16.260;2023-06-14T03:39:57;11.20;99.90
48206;DHT22;33995;48.202;16.260;2023-06-14T03:42:28;11.20;99.90
48206;DHT22;33995;48.202;16.260;2023-06-14T03:44:59;11.20;99.90
48206;DHT22;33995;48.202;16.260;2023-06-14T03:47:30;11.20;99.90
48206;DHT22;33995;48.202;16.260;2023-06-14T03:50:00;11.20;99.90
48206;DHT22;33995;48.202;16.260;2023-06-14T03:52:38;11.00;99.90
48206;DHT22;33995;48.202;16.260;2023-06-14T03:55:09;11.10;99.90
48206;DHT22;33995;48.202;16.260;2023-06-14T03:57:45;11.20;99.90
48206;DHT22;33995;48.202;16.260;2023-06-14T04:00:20;11.20;99.90
48206;DHT22;33995;48.202;16.260;2023-06-14T04:02:57;11.30;99.90
48206;DHT22;33995;48.202;16.260;2023-06-14T04:05:31;11.30;99.90
48206;DHT22;33995;48.202;16.260;2023-06-14T04:08:04;11.30;99.90
48206;DHT22;33995;48.202;16.260;2023-06-14T04:10:33;11.30;99.90
48206;DHT22;33995;48.202;16.260;2023-06-14T04:13:05;11.30;99.90
48206;DHT22;33995;48.202;16.260;2023-06-14T04:15:34;11.30;99.90
48206;DHT22;33995;48.202;16.260;2023-06-14T04:18:10;11.40;99.90
48206;DHT22;33995;48.202;16.260;2023-06-14T04:20:40;11.40;99.90
48206;DHT22;33995;48.202;16.260;2023-06-14T04:23:25;11.50;99.90
48206;DHT22;33995;48.202;16.260;2023-06-14T04:25:59;11.40;99.90
48206;DHT22;33995;48.202;16.260;2023-06-14T04:28:34;11.50;99.90
48206;DHT22;33995;48.202;16.260;2023-06-14T04:31:11;11.50;99.90
48206;DHT22;33995;48.202;16.260;2023-06-14T04:33:41;11.50;99.90
48206;DHT22;33995;48.202;16.260;2023-06-14T04:36:23;11.60;99.90
48206;DHT22;33995;48.202;16.260;2023-06-14T04:38:54;11.60;99.90
48206;DHT22;33995;48.202;16.260;2023-06-14T04:41:30;11.60;99.90
48206;DHT22;33995;48.202;16.260;2023-06-14T04:44:02;11.70;99.90
48206;DHT22;33995;48.202;16.260;2023-06-14T04:46:37;11.60;99.90
48206;DHT22;33995;48.202;16.260;2023-06-14T04:49:20;11.70;99.90
48206;DHT22;33995;48.202;16.260;2023-06-14T04:51:53;11.80;99.90
48206;DHT22;33995;48.202;16.260;2023-06-14T04:54:55;11.90;99.90
48206;DHT22;33995;48.202;16.260;2023-06-14T04:57:26;11.90;99.90
48206;DHT22;33995;48.202;16.260;2023-06-14T04:59:59;11.90;99.90
48206;DHT22;33995;48.202;16.260;2023-06-14T05:02:32;12.10;99.90
48206;DHT22;33995;48.202;16.260;2023-06-14T05:05:14;12.20;99.90
48206;DHT22;33995;48.202;16.260;2023-06-14T05:07:46;12.20;99.90
48206;DHT22;33995;48.202;16.260;2023-06-14T05:10:24;12.30;99.90
48206;DHT22;33995;48.202;16.260;2023-06-14T05:12:54;12.40;99.90
48206;DHT22;33995;48.202;16.260;2023-06-14T05:15:22;12.50;99.90
48206;DHT22;33995;48.202;16.260;2023-06-14T05:17:54;12.60;99.90
48206;DHT22;33995;48.202;16.260;2023-06-14T05:20:25;12.70;99.90
48206;DHT22;33995;48.202;16.260;2023-06-14T05:22:56;13.00;99.90
48206;DHT22;33995;48.202;16.260;2023-06-14T05:25:27;13.10;99.90
48206;DHT22;33995;48.202;16.260;2023-06-14T05:28:00;13.20;99.90
48206;DHT22;33995;48.202;16.260;2023-06-14T05:30:31;13.30;99.90
48206;DHT22;33995;48.202;16.260;2023-06-14T05:33:04;13.40;99.90
48206;DHT22;33995;48.202;16.260;2023-06-14T05:35:40;13.50;99.90
48206;DHT22;33995;48.202;16.260;2023-06-14T05:38:22;13.70;99.90
48206;DHT22;33995;48.202;16.260;2023-06-14T05:40:53;13.90;99.90
48206;DHT22;33995;48.202;16.260;2023-06-14T05:43:23;14.00;99.90
48206;DHT22;33995;48.202;16.260;2023-06-14T05:45:55;14.20;99.90
48206;DHT22;33995;48.202;16.260;2023-06-14T05:48:26;14.30;99.90
48206;DHT22;33995;48.202;16.260;2023-06-14T05:51:00;14.40;99.90
48206;DHT22;33995;48.202;16.260;2023-06-14T05:53:31;14.50;99.90
48206;DHT22;33995;48.202;16.260;2023-06-14T05:55:58;14.70;99.90
48206;DHT22;33995;48.202;16.260;2023-06-14T05:58:29;14.90;99.90
48206;DHT22;33995;48.202;16.260;2023-06-14T06:01:03;15.20;99.90
48206;DHT22;33995;48.202;16.260;2023-06-14T06:03:34;15.40;99.90
48206;DHT22;33995;48.202;16.260;2023-06-14T06:06:06;15.60;99.90
48206;DHT22;33995;48.202;16.260;2023-06-14T06:08:44;15.60;99.90
48206;DHT22;33995;48.202;16.260;2023-06-14T06:11:16;16.00;99.90
48206;DHT22;33995;48.202;16.260;2023-06-14T06:13:47;16.10;99.90
48206;DHT22;33995;48.202;16.260;2023-06-14T06:16:20;16.40;99.90
48206;DHT22;33995;48.202;16.260;2023-06-14T06:18:53;16.50;99.90
48206;DHT22;33995;48.202;16.260;2023-06-14T06:21:24;16.60;99.90
48206;DHT22;33995;48.202;16.260;2023-06-14T06:23:59;16.60;99.90
48206;DHT22;33995;48.202;16.260;2023-06-14T06:26:34;16.60;99.90
48206;DHT22;33995;48.202;16.260;2023-06-14T06:29:07;16.70;99.90
48206;DHT22;33995;48.202;16.260;2023-06-14T06:31:38;16.80;99.90
48206;DHT22;33995;48.202;16.260;2023-06-14T06:34:08;16.80;99.90
48206;DHT22;33995;48.202;16.260;2023-06-14T06:36:37;16.90;99.90
48206;DHT22;33995;48.202;16.260;2023-06-14T06:39:15;16.90;99.90
48206;DHT22;33995;48.202;16.260;2023-06-14T06:41:46;17.10;99.90
48206;DHT22;33995;48.202;16.260;2023-06-14T06:44:27;17.10;99.90
48206;DHT22;33995;48.202;16.260;2023-06-14T06:46:58;17.10;99.90
48206;DHT22;33995;48.202;16.260;2023-06-14T06:49:28;17.10;99.90
48206;DHT22;33995;48.202;16.260;2023-06-14T06:54:51;17.30;99.90
48206;DHT22;33995;48.202;16.260;2023-06-14T06:57:25;17.30;99.90
48206;DHT22;33995;48.202;16.260;2023-06-14T06:59:58;17.30;99.90
48206;DHT22;33995;48.202;16.260;2023-06-14T07:02:29;17.40;99.90
48206;DHT22;33995;48.202;16.260;2023-06-14T07:05:01;17.50;99.90
48206;DHT22;33995;48.202;16.260;2023-06-14T07:07:30;17.70;99.90
48206;DHT22;33995;48.202;16.260;2023-06-14T07:09:59;17.80;99.90
48206;DHT22;33995;48.202;16.260;2023-06-14T07:12:29;17.80;99.90
48206;DHT22;33995;48.202;16.260;2023-06-14T07:15:03;17.90;99.90
48206;DHT22;33995;48.202;16.260;2023-06-14T07:17:36;17.90;99.90
48206;DHT22;33995;48.202;16.260;2023-06-14T07:20:10;17.90;99.90
48206;DHT22;33995;48.202;16.260;2023-06-14T07:22:56;17.90;99.90
48206;DHT22;33995;48.202;16.260;2023-06-14T07:25:26;18.00;99.90
48206;DHT22;33995;48.202;16.260;2023-06-14T07:27:54;18.10;99.90
48206;DHT22;33995;48.202;16.260;2023-06-14T07:30:27;18.10;99.90
48206;DHT22;33995;48.202;16.260;2023-06-14T07:33:01;18.10;99.90
48206;DHT22;33995;48.202;16.260;2023-06-14T07:35:42;18.20;99.90
48206;DHT22;33995;48.202;16.260;2023-06-14T07:38:14;18.10;99.90
48206;DHT22;33995;48.202;16.260;2023-06-14T07:40:58;18.10;99.90
48206;DHT22;33995;48.202;16.260;2023-06-14T07:43:25;18.10;99.90
48206;DHT22;33995;48.202;16.260;2023-06-14T07:45:56;18.00;99.90
48206;DHT22;33995;48.202;16.260;2023-06-14T07:48:35;18.00;99.90
48206;DHT22;33995;48.202;16.260;2023-06-14T07:51:04;18.00;99.90
48206;DHT22;33995;48.202;16.260;2023-06-14T07:53:36;18.00;99.90
48206;DHT22;33995;48.202;16.260;2023-06-14T07:56:06;18.10;99.90
48206;DHT22;33995;48.202;16.260;2023-06-14T07:58:37;18.20;99.90
48206;DHT22;33995;48.202;16.260;2023-06-14T08:01:08;18.20;99.90
48206;DHT22;33995;48.202;16.260;2023-06-14T08:03:38;18.20;99.90
48206;DHT22;33995;48.202;16.260;2023-06-14T08:06:11;18.40;99.90
48206;DHT22;33995;48.202;16.260;2023-06-14T08:08:44;18.60;99.90
48206;DHT22;33995;48.202;16.260;2023-06-14T08:11:12;18.90;99.90
48206;DHT22;33995;48.202;16.260;2023-06-14T08:13:42;19.10;99.90
48206;DHT22;33995;48.202;16.260;2023-06-14T08:16:11;19.20;99.90
48206;DHT22;33995;48.202;16.260;2023-06-14T08:18:42;19.20;99.90
48206;DHT22;33995;48.202;16.260;2023-06-14T08:21:25;19.20;99.90
48206;DHT22;33995;48.202;16.260;2023-06-14T08:24:00;19.40;99.90
48206;DHT22;33995;48.202;16.260;2023-06-14T08:26:30;19.60;99.90
48206;DHT22;33995;48.202;16.260;2023-06-14T08:29:00;19.70;99.90
48206;DHT22;33995;48.202;16.260;2023-06-14T08:31:37;19.70;99.90
48206;DHT22;33995;48.202;16.260;2023-06-14T08:34:11;19.80;99.90
48206;DHT22;33995;48.202;16.260;2023-06-14T08:36:38;19.90;99.90
48206;DHT22;33995;48.202;16.260;2023-06-14T08:39:10;19.80;99.90
48206;DHT22;33995;48.202;16.260;2023-06-14T08:41:45;19.80;99.90
48206;DHT22;33995;48.202;16.260;2023-06-14T08:44:18;19.50;99.90
48206;DHT22;33995;48.202;16.260;2023-06-14T08:46:48;19.50;99.90
48206;DHT22;33995;48.202;16.260;2023-06-14T08:49:16;19.40;99.90
48206;DHT22;33995;48.202;16.260;2023-06-14T08:51:47;19.50;99.90
48206;DHT22;33995;48.202;16.260;2023-06-14T08:54:28;19.40;99.90
48206;DHT22;33995;48.202;16.260;2023-06-14T08:57:13;19.50;99.90
48206;DHT22;33995;48.202;16.260;2023-06-14T09:00:05;19.70;99.90
48206;DHT22;33995;48.202;16.260;2023-06-14T09:02:40;19.80;99.90
48206;DHT22;33995;48.202;16.260;2023-06-14T09:05:14;19.90;99.90
48206;DHT22;33995;48.202;16.260;2023-06-14T09:07:48;19.90;99.90
48206;DHT22;33995;48.202;16.260;2023-06-14T09:10:25;20.20;99.90
48206;DHT22;33995;48.202;16.260;2023-06-14T09:12:58;20.40;99.90
48206;DHT22;33995;48.202;16.260;2023-06-14T09:15:31;20.30;99.90
48206;DHT22;33995;48.202;16.260;2023-06-14T09:18:02;20.40;99.90
48206;DHT22;33995;48.202;16.260;2023-06-14T09:20:32;20.50;99.90
48206;DHT22;33995;48.202;16.260;2023-06-14T09:23:04;20.60;99.90
48206;DHT22;33995;48.202;16.260;2023-06-14T09:25:48;20.70;99.90
48206;DHT22;33995;48.202;16.260;2023-06-14T09:28:19;20.80;99.90
48206;DHT22;33995;48.202;16.260;2023-06-14T09:30:51;20.80;99.90
48206;DHT22;33995;48.202;16.260;2023-06-14T09:33:19;20.70;99.90
48206;DHT22;33995;48.202;16.260;2023-06-14T09:35:52;20.60;99.90
48206;DHT22;33995;48.202;16.260;2023-06-14T09:38:25;20.70;99.90
48206;DHT22;33995;48.202;16.260;2023-06-14T09:40:58;20.80;99.90
48206;DHT22;33995;48.202;16.260;2023-06-14T09:43:29;20.90;99.90
48206;DHT22;33995;48.202;16.260;2023-06-14T09:46:01;21.00;99.90
48206;DHT22;33995;48.202;16.260;2023-06-14T09:48:31;21.00;99.90
48206;DHT22;33995;48.202;16.260;2023-06-14T09:51:04;20.80;99.90
48206;DHT22;33995;48.202;16.260;2023-06-14T09:53:36;21.10;99.90
48206;DHT22;33995;48.202;16.260;2023-06-14T09:56:07;21.40;99.90
48206;DHT22;33995;48.202;16.260;2023-06-14T09:58:41;21.40;99.90
48206;DHT22;33995;48.202;16.260;2023-06-14T10:01:31;21.60;99.90
48206;DHT22;33995;48.202;16.260;2023-06-14T10:04:21;21.50;99.90
48206;DHT22;33995;48.202;16.260;2023-06-14T10:06:51;21.60;99.90
48206;DHT22;33995;48.202;16.260;2023-06-14T10:09:24;21.80;99.90
48206;DHT22;33995;48.202;16.260;2023-06-14T10:12:02;21.90;99.90
48206;DHT22;33995;48.202;16.260;2023-06-14T10:14:35;22.00;99.90
48206;DHT22;33995;48.202;16.260;2023-06-14T10:17:10;22.00;99.90
48206;DHT22;33995;48.202;16.260;2023-06-14T10:19:58;21.80;99.90
48206;DHT22;33995;48.202;16.260;2023-06-14T10:22:41;21.50;99.90
48206;DHT22;33995;48.202;16.260;2023-06-14T10:25:30;21.40;99.90
48206;DHT22;33995;48.202;16.260;2023-06-14T10:28:17;21.40;99.90
48206;DHT22;33995;48.202;16.260;2023-06-14T10:31:07;21.60;99.90
48206;DHT22;33995;48.202;16.260;2023-06-14T10:36:32;21.70;99.90
48206;DHT22;33995;48.202;16.260;2023-06-14T10:41:57;21.90;99.90
48206;DHT22;33995;48.202;16.260;2023-06-14T10:45:11;22.10;99.90
48206;DHT22;33995;48.202;16.260;2023-06-14T10:47:34;21.90;99.90
48206;DHT22;33995;48.202;16.260;2023-06-14T10:50:08;21.60;99.90
48206;DHT22;33995;48.202;16.260;2023-06-14T10:52:40;21.50;99.90
48206;DHT22;33995;48.202;16.260;2023-06-14T10:55:19;21.60;99.90
48206;DHT22;33995;48.202;16.260;2023-06-14T10:57:54;21.80;99.90
48206;DHT22;33995;48.202;16.260;2023-06-14T11:00:38;21.90;99.90
48206;DHT22;33995;48.202;16.260;2023-06-14T11:03:31;21.70;99.90
48206;DHT22;33995;48.202;16.260;2023-06-14T11:06:16;21.50;99.90
48206;DHT22;33995;48.202;16.260;2023-06-14T11:11:51;21.60;99.90
48206;DHT22;33995;48.202;16.260;2023-06-14T11:14:24;21.50;99.90
48206;DHT22;33995;48.202;16.260;2023-06-14T11:16:54;21.50;99.90
48206;DHT22;33995;48.202;16.260;2023-06-14T11:19:27;21.30;99.90
48206;DHT22;33995;48.202;16.260;2023-06-14T11:22:03;21.30;99.90
48206;DHT22;33995;48.202;16.260;2023-06-14T11:24:33;21.20;99.90
48206;DHT22;33995;48.202;16.260;2023-06-14T11:27:07;21.10;99.90
48206;DHT22;33995;48.202;16.260;2023-06-14T11:29:47;21.10;99.90
48206;DHT22;33995;48.202;16.260;2023-06-14T11:32:17;21.10;99.90
48206;DHT22;33995;48.202;16.260;2023-06-14T11:34:49;21.10;99.90
48206;DHT22;33995;48.202;16.260;2023-06-14T11:37:22;21.10;99.90
48206;DHT22;33995;48.202;16.260;2023-06-14T11:40:01;21.20;99.90
48206;DHT22;33995;48.202;16.260;2023-06-14T11:42:32;21.30;99.90
48206;DHT22;33995;48.202;16.260;2023-06-14T11:45:03;21.30;99.90
48206;DHT22;33995;48.202;16.260;2023-06-14T11:47:41;21.40;99.90
48206;DHT22;33995;48.202;16.260;2023-06-14T11:50:11;21.40;99.90
48206;DHT22;33995;48.202;16.260;2023-06-14T11:52:42;21.30;99.90
48206;DHT22;33995;48.202;16.260;2023-06-14T11:55:10;21.20;99.90
48206;DHT22;33995;48.202;16.260;2023-06-14T11:57:42;21.10;99.90
48206;DHT22;33995;48.202;16.260;2023-06-14T12:00:15;21.00;99.90
48206;DHT22;33995;48.202;16.260;2023-06-14T12:02:56;20.90;99.90
48206;DHT22;33995;48.202;16.260;2023-06-14T12:05:29;20.90;99.90
48206;DHT22;33995;48.202;16.260;2023-06-14T12:08:01;20.90;99.90
48206;DHT22;33995;48.202;16.260;2023-06-14T12:10:40;20.70;99.90
48206;DHT22;33995;48.202;16.260;2023-06-14T12:13:17;20.70;99.90
48206;DHT22;33995;48.202;16.260;2023-06-14T12:15:44;20.80;99.90
48206;DHT22;33995;48.202;16.260;2023-06-14T12:18:16;20.80;99.90
48206;DHT22;33995;48.202;16.260;2023-06-14T12:20:50;20.80;99.90
48206;DHT22;33995;48.202;16.260;2023-06-14T12:23:49;20.80;99.90
48206;DHT22;33995;48.202;16.260;2023-06-14T12:26:26;20.70;99.90
48206;DHT22;33995;48.202;16.260;2023-06-14T12:28:56;20.80;99.90
48206;DHT22;33995;48.202;16.260;2023-06-14T12:31:26;20.70;99.90
48206;DHT22;33995;48.202;16.260;2023-06-14T12:33:59;20.80;99.90
48206;DHT22;33995;48.202;16.260;2023-06-14T12:36:32;20.90;99.90
48206;DHT22;33995;48.202;16.260;2023-06-14T12:39:01;20.90;99.90
48206;DHT22;33995;48.202;16.260;2023-06-14T12:41:30;21.00;99.90
48206;DHT22;33995;48.202;16.260;2023-06-14T12:44:00;21.20;99.90
48206;DHT22;33995;48.202;16.260;2023-06-14T12:46:33;21.40;99.90
48206;DHT22;33995;48.202;16.260;2023-06-14T12:49:01;21.60;99.90
48206;DHT22;33995;48.202;16.260;2023-06-14T12:51:33;21.80;99.90
48206;DHT22;33995;48.202;16.260;2023-06-14T12:54:04;21.80;99.90
48206;DHT22;33995;48.202;16.260;2023-06-14T12:56:32;21.90;99.90
48206;DHT22;33995;48.202;16.260;2023-06-14T12:59:08;22.10;99.90
48206;DHT22;33995;48.202;16.260;2023-06-14T13:01:40;22.10;99.90
48206;DHT22;33995;48.202;16.260;2023-06-14T13:04:11;22.20;99.90
48206;DHT22;33995;48.202;16.260;2023-06-14T13:06:41;22.30;99.90
48206;DHT22;33995;48.202;16.260;2023-06-14T13:09:11;22.20;99.90
48206;DHT22;33995;48.202;16.260;2023-06-14T13:11:42;21.90;99.90
48206;DHT22;33995;48.202;16.260;2023-06-14T13:14:16;21.70;99.90
48206;DHT22;33995;48.202;16.260;2023-06-14T13:16:52;21.70;99.90
48206;DHT22;33995;48.202;16.260;2023-06-14T13:19:23;21.60;99.90
48206;DHT22;33995;48.202;16.260;2023-06-14T13:21:54;21.60;99.90
48206;DHT22;33995;48.202;16.260;2023-06-14T13:24:26;21.80;99.90
48206;DHT22;33995;48.202;16.260;2023-06-14T13:27:00;22.00;99.90
48206;DHT22;33995;48.202;16.260;2023-06-14T13:29:32;22.10;99.90
48206;DHT22;33995;48.202;16.260;2023-06-14T13:32:11;21.90;99.90
48206;DHT22;33995;48.202;16.260;2023-06-14T13:34:42;21.80;99.90
48206;DHT22;33995;48.202;16.260;2023-06-14T13:37:13;21.70;99.90
48206;DHT22;33995;48.202;16.260;2023-06-14T13:39:42;21.70;99.90
48206;DHT22;33995;48.202;16.260;2023-06-14T13:42:14;21.90;99.90
48206;DHT22;33995;48.202;16.260;2023-06-14T13:44:41;22.00;99.90
48206;DHT22;33995;48.202;16.260;2023-06-14T13:47:13;21.90;99.90
48206;DHT22;33995;48.202;16.260;2023-06-14T13:49:52;22.00;99.90
48206;DHT22;33995;48.202;16.260;2023-06-14T13:52:24;22.20;99.90
48206;DHT22;33995;48.202;16.260;2023-06-14T13:54:55;22.20;99.90
48206;DHT22;33995;48.202;16.260;2023-06-14T13:57:27;22.30;99.90
48206;DHT22;33995;48.202;16.260;2023-06-14T13:59:58;22.30;99.90
48206;DHT22;33995;48.202;16.260;2023-06-14T14:02:44;22.40;99.90
48206;DHT22;33995;48.202;16.260;2023-06-14T14:05:16;22.40;99.90
48206;DHT22;33995;48.202;16.260;2023-06-14T14:07:46;22.40;99.80
48206;DHT22;33995;48.202;16.260;2023-06-14T14:10:16;22.50;99.70
48206;DHT22;33995;48.202;16.260;2023-06-14T14:13:06;22.60;99.90
48206;DHT22;33995;48.202;16.260;2023-06-14T14:15:37;22.70;99.90
48206;DHT22;33995;48.202;16.260;2023-06-14T14:18:08;22.80;99.90
48206;DHT22;33995;48.202;16.260;2023-06-14T14:20:38;22.80;99.80
48206;DHT22;33995;48.202;16.260;2023-06-14T14:23:17;22.80;99.90
48206;DHT22;33995;48.202;16.260;2023-06-14T14:25:45;22.90;99.90
48206;DHT22;33995;48.202;16.260;2023-06-14T14:28:14;22.90;99.80
48206;DHT22;33995;48.202;16.260;2023-06-14T14:30:45;22.80;99.90
48206;DHT22;33995;48.202;16.260;2023-06-14T14:33:19;22.60;99.90
48206;DHT22;33995;48.202;16.260;2023-06-14T14:35:51;22.50;99.90
48206;DHT22;33995;48.202;16.260;2023-06-14T14:38:23;22.30;99.90
48206;DHT22;33995;48.202;16.260;2023-06-14T14:40:57;22.10;99.90
48206;DHT22;33995;48.202;16.260;2023-06-14T14:43:28;22.00;99.90
48206;DHT22;33995;48.202;16.260;2023-06-14T14:46:00;21.90;99.90
48206;DHT22;33995;48.202;16.260;2023-06-14T14:48:31;21.80;99.90
48206;DHT22;33995;48.202;16.260;2023-06-14T14:51:00;21.70;99.90
48206;DHT22;33995;48.202;16.260;2023-06-14T14:53:30;21.70;99.70
48206;DHT22;33995;48.202;16.260;2023-06-14T14:56:01;21.60;99.90
48206;DHT22;33995;48.202;16.260;2023-06-14T14:58:35;21.50;99.90
48206;DHT22;33995;48.202;16.260;2023-06-14T15:01:08;21.40;99.90
48206;DHT22;33995;48.202;16.260;2023-06-14T15:03:36;21.50;99.90
48206;DHT22;33995;48.202;16.260;2023-06-14T15:06:21;21.60;99.90
48206;DHT22;33995;48.202;16.260;2023-06-14T15:08:52;21.80;99.90
48206;DHT22;33995;48.202;16.260;2023-06-14T15:11:27;21.90;99.90
48206;DHT22;33995;48.202;16.260;2023-06-14T15:13:57;22.00;99.90
48206;DHT22;33995;48.202;16.260;2023-06-14T15:16:37;22.10;99.90
48206;DHT22;33995;48.202;16.260;2023-06-14T15:19:08;22.10;99.70
48206;DHT22;33995;48.202;16.260;2023-06-14T15:21:39;22.10;98.90
48206;DHT22;33995;48.202;16.260;2023-06-14T15:24:10;22.20;99.70
48206;DHT22;33995;48.202;16.260;2023-06-14T15:26:41;22.20;99.40
48206;DHT22;33995;48.202;16.260;2023-06-14T15:29:16;22.10;99.50
48206;DHT22;33995;48.202;16.260;2023-06-14T15:31:45;22.10;99.30
48206;DHT22;33995;48.202;16.260;2023-06-14T15:34:17;21.90;99.80
48206;DHT22;33995;48.202;16.260;2023-06-14T15:36:49;21.80;99.90
48206;DHT22;33995;48.202;16.260;2023-06-14T15:39:20;21.80;99.90
48206;DHT22;33995;48.202;16.260;2023-06-14T15:41:52;21.80;99.90
48206;DHT22;33995;48.202;16.260;2023-06-14T15:44:23;21.70;99.90
48206;DHT22;33995;48.202;16.260;2023-06-14T15:46:53;21.60;99.70
48206;DHT22;33995;48.202;16.260;2023-06-14T15:49:30;21.50;99.90
48206;DHT22;33995;48.202;16.260;2023-06-14T15:52:02;21.50;99.90
48206;DHT22;33995;48.202;16.260;2023-06-14T15:54:40;21.50;99.80
48206;DHT22;33995;48.202;16.260;2023-06-14T15:57:10;21.40;99.80
48206;DHT22;33995;48.202;16.260;2023-06-14T15:59:44;21.40;99.90
48206;DHT22;33995;48.202;16.260;2023-06-14T16:02:22;21.40;99.90
48206;DHT22;33995;48.202;16.260;2023-06-14T16:04:53;21.30;99.90
48206;DHT22;33995;48.202;16.260;2023-06-14T16:07:23;21.40;99.90
48206;DHT22;33995;48.202;16.260;2023-06-14T16:09:53;21.40;99.90